sensor_id;sensor_type;location;lat;lon;timestamp;P1;durP1;ratioP1;P2;durP2;ratioP2
9821;SDS011;4950;46.042;14.472;2022-10-16T00:02:25;36.00;;;32.10;;
9821;SDS011;4950;46.042;14.472;2022-10-16T00:04:51;37.40;;;31.20;;
9821;SDS011;4950;46.042;14.472;2022-10-16T00:07:19;35.57;;;31.20;;
9821;SDS011;4950;46.042;14.472;2022-10-16T00:09:46;35.23;;;31.43;;
9821;SDS011;4950;46.042;14.472;2022-10-16T00:12:14;32.70;;;29.13;;
9821;SDS011;4950;46.042;14.472;2022-10-16T00:14:40;34.40;;;30.83;;
9821;SDS011;4950;46.042;14.472;2022-10-16T00:17:08;34.07;;;30.47;;
9821;SDS011;4950;46.042;14.472;2022-10-16T00:19:35;35.50;;;31.80;;
9821;SDS011;4950;46.042;14.472;2022-10-16T00:22:02;33.23;;;29.70;;
9821;SDS011;4950;46.042;14.472;2022-10-16T00:24:28;33.93;;;30.30;;
9821;SDS011;4950;46.042;14.472;2022-10-16T00:26:55;34.20;;;30.80;;
9821;SDS011;4950;46.042;14.472;2022-10-16T00:29:23;33.40;;;29.80;;
9821;SDS011;4950;46.042;14.472;2022-10-16T00:31:50;32.33;;;29.00;;
9821;SDS011;4950;46.042;14.472;2022-10-16T00:34:16;32.53;;;29.00;;
9821;SDS011;4950;46.042;14.472;2022-10-16T00:36:43;34.20;;;30.57;;
9821;SDS011;4950;46.042;14.472;2022-10-16T00:39:09;34.23;;;30.63;;
9821;SDS011;4950;46.042;14.472;2022-10-16T00:41:36;33.13;;;29.57;;
9821;SDS011;4950;46.042;14.472;2022-10-16T00:44:03;33.23;;;29.80;;
9821;SDS011;4950;46.042;14.472;2022-10-16T00:46:51;33.50;;;29.97;;
9821;SDS011;4950;46.042;14.472;2022-10-16T00:49:18;33.53;;;29.97;;
9821;SDS011;4950;46.042;14.472;2022-10-16T00:51:47;36.27;;;31.63;;
9821;SDS011;4950;46.042;14.472;2022-10-16T00:54:16;35.87;;;30.63;;
9821;SDS011;4950;46.042;14.472;2022-10-16T00:56:46;34.17;;;30.47;;
9821;SDS011;4950;46.042;14.472;2022-10-16T00:59:15;32.50;;;29.20;;
9821;SDS011;4950;46.042;14.472;2022-10-16T01:01:44;34.90;;;31.33;;
9821;SDS011;4950;46.042;14.472;2022-10-16T01:04:12;32.80;;;29.60;;
9821;SDS011;4950;46.042;14.472;2022-10-16T01:06:40;33.30;;;30.07;;
9821;SDS011;4950;46.042;14.472;2022-10-16T01:09:12;36.37;;;32.90;;
9821;SDS011;4950;46.042;14.472;2022-10-16T01:11:49;38.53;;;34.67;;
9821;SDS011;4950;46.042;14.472;2022-10-16T01:14:27;37.07;;;33.37;;
9821;SDS011;4950;46.042;14.472;2022-10-16T01:17:04;38.37;;;34.53;;
9821;SDS011;4950;46.042;14.472;2022-10-16T01:19:40;39.13;;;35.07;;
9821;SDS011;4950;46.042;14.472;2022-10-16T01:22:17;36.70;;;32.93;;
9821;SDS011;4950;46.042;14.472;2022-10-16T01:24:48;40.13;;;35.93;;
9821;SDS011;4950;46.042;14.472;2022-10-16T01:27:18;39.63;;;35.60;;
9821;SDS011;4950;46.042;14.472;2022-10-16T01:29:52;40.43;;;36.47;;
9821;SDS011;4950;46.042;14.472;2022-10-16T01:32:24;40.33;;;36.60;;
9821;SDS011;4950;46.042;14.472;2022-10-16T01:34:58;43.43;;;39.20;;
9821;SDS011;4950;46.042;14.472;2022-10-16T01:37:31;41.53;;;37.50;;
9821;SDS011;4950;46.042;14.472;2022-10-16T01:40:02;40.43;;;36.53;;
9821;SDS011;4950;46.042;14.472;2022-10-16T01:42:34;43.60;;;39.03;;
9821;SDS011;4950;46.042;14.472;2022-10-16T01:45:03;45.23;;;40.70;;
9821;SDS011;4950;46.042;14.472;2022-10-16T01:47:33;43.17;;;38.87;;
9821;SDS011;4950;46.042;14.472;2022-10-16T01:50:03;42.80;;;38.50;;
9821;SDS011;4950;46.042;14.472;2022-10-16T01:52:33;46.33;;;41.63;;
9821;SDS011;4950;46.042;14.472;2022-10-16T01:55:02;47.13;;;42.20;;
9821;SDS011;4950;46.042;14.472;2022-10-16T01:57:33;47.90;;;42.10;;
9821;SDS011;4950;46.042;14.472;2022-10-16T02:00:04;45.27;;;40.37;;
9821;SDS011;4950;46.042;14.472;2022-10-16T02:02:34;51.23;;;42.03;;
9821;SDS011;4950;46.042;14.472;2022-10-16T02:05:02;45.67;;;39.60;;
9821;SDS011;4950;46.042;14.472;2022-10-16T02:07:34;45.77;;;40.80;;
9821;SDS011;4950;46.042;14.472;2022-10-16T02:10:01;48.63;;;41.90;;
9821;SDS011;4950;46.042;14.472;2022-10-16T02:12:29;47.67;;;40.70;;
9821;SDS011;4950;46.042;14.472;2022-10-16T02:15:00;46.37;;;40.67;;
9821;SDS011;4950;46.042;14.472;2022-10-16T02:17:27;48.47;;;42.57;;
9821;SDS011;4950;46.042;14.472;2022-10-16T02:19:54;44.80;;;39.67;;
9821;SDS011;4950;46.042;14.472;2022-10-16T02:22:24;46.13;;;40.23;;
9821;SDS011;4950;46.042;14.472;2022-10-16T02:24:55;46.20;;;41.20;;
9821;SDS011;4950;46.042;14.472;2022-10-16T02:27:26;46.07;;;40.87;;
9821;SDS011;4950;46.042;14.472;2022-10-16T02:30:00;45.77;;;40.77;;
9821;SDS011;4950;46.042;14.472;2022-10-16T02:32:32;54.67;;;42.53;;
9821;SDS011;4950;46.042;14.472;2022-10-16T02:35:02;48.17;;;41.23;;
9821;SDS011;4950;46.042;14.472;2022-10-16T02:37:31;49.07;;;41.53;;
9821;SDS011;4950;46.042;14.472;2022-10-16T02:39:58;54.03;;;42.57;;
9821;SDS011;4950;46.042;14.472;2022-10-16T02:42:28;58.33;;;43.77;;
9821;SDS011;4950;46.042;14.472;2022-10-16T02:44:56;49.83;;;41.67;;
9821;SDS011;4950;46.042;14.472;2022-10-16T02:47:24;54.07;;;45.33;;
9821;SDS011;4950;46.042;14.472;2022-10-16T02:49:50;50.97;;;42.83;;
9821;SDS011;4950;46.042;14.472;2022-10-16T02:52:17;54.57;;;43.93;;
9821;SDS011;4950;46.042;14.472;2022-10-16T02:54:43;56.00;;;47.33;;
9821;SDS011;4950;46.042;14.472;2022-10-16T02:57:10;67.73;;;45.13;;
9821;SDS011;4950;46.042;14.472;2022-10-16T02:59:36;52.83;;;44.27;;
9821;SDS011;4950;46.042;14.472;2022-10-16T03:02:03;55.77;;;45.03;;
9821;SDS011;4950;46.042;14.472;2022-10-16T03:04:31;51.53;;;43.20;;
9821;SDS011;4950;46.042;14.472;2022-10-16T03:06:58;62.33;;;45.03;;
9821;SDS011;4950;46.042;14.472;2022-10-16T03:09:24;48.07;;;42.33;;
9821;SDS011;4950;46.042;14.472;2022-10-16T03:11:51;48.63;;;43.33;;
9821;SDS011;4950;46.042;14.472;2022-10-16T03:14:18;48.50;;;43.20;;
9821;SDS011;4950;46.042;14.472;2022-10-16T03:16:44;49.30;;;43.90;;
9821;SDS011;4950;46.042;14.472;2022-10-16T03:19:11;47.57;;;41.93;;
9821;SDS011;4950;46.042;14.472;2022-10-16T03:21:39;47.53;;;42.33;;
9821;SDS011;4950;46.042;14.472;2022-10-16T03:24:05;47.87;;;42.77;;
9821;SDS011;4950;46.042;14.472;2022-10-16T03:26:32;54.30;;;44.00;;
9821;SDS011;4950;46.042;14.472;2022-10-16T03:28:59;48.37;;;42.60;;
9821;SDS011;4950;46.042;14.472;2022-10-16T03:31:27;56.80;;;44.83;;
9821;SDS011;4950;46.042;14.472;2022-10-16T03:33:54;48.57;;;43.03;;
9821;SDS011;4950;46.042;14.472;2022-10-16T03:36:20;46.13;;;41.13;;
9821;SDS011;4950;46.042;14.472;2022-10-16T03:38:48;46.87;;;41.83;;
9821;SDS011;4950;46.042;14.472;2022-10-16T03:41:15;46.93;;;41.87;;
9821;SDS011;4950;46.042;14.472;2022-10-16T03:43:41;42.77;;;38.30;;
9821;SDS011;4950;46.042;14.472;2022-10-16T03:46:08;41.73;;;37.47;;
9821;SDS011;4950;46.042;14.472;2022-10-16T03:48:35;42.87;;;38.33;;
9821;SDS011;4950;46.042;14.472;2022-10-16T03:51:02;50.03;;;37.43;;
9821;SDS011;4950;46.042;14.472;2022-10-16T03:53:28;41.93;;;37.70;;
9821;SDS011;4950;46.042;14.472;2022-10-16T03:55:56;42.50;;;38.07;;
9821;SDS011;4950;46.042;14.472;2022-10-16T03:58:23;39.60;;;35.53;;
9821;SDS011;4950;46.042;14.472;2022-10-16T04:00:50;39.67;;;35.37;;
9821;SDS011;4950;46.042;14.472;2022-10-16T04:03:16;41.07;;;36.87;;
9821;SDS011;4950;46.042;14.472;2022-10-16T04:05:44;41.30;;;37.10;;
9821;SDS011;4950;46.042;14.472;2022-10-16T04:08:10;39.93;;;35.83;;
9821;SDS011;4950;46.042;14.472;2022-10-16T04:10:37;41.60;;;37.20;;
9821;SDS011;4950;46.042;14.472;2022-10-16T04:13:05;39.57;;;35.57;;
9821;SDS011;4950;46.042;14.472;2022-10-16T04:15:31;42.37;;;36.37;;
9821;SDS011;4950;46.042;14.472;2022-10-16T04:17:58;39.73;;;35.87;;
9821;SDS011;4950;46.042;14.472;2022-10-16T04:20:24;40.23;;;36.33;;
9821;SDS011;4950;46.042;14.472;2022-10-16T04:22:51;44.70;;;35.90;;
9821;SDS011;4950;46.042;14.472;2022-10-16T04:25:18;40.90;;;37.07;;
9821;SDS011;4950;46.042;14.472;2022-10-16T04:27:44;58.60;;;37.57;;
9821;SDS011;4950;46.042;14.472;2022-10-16T04:30:12;39.50;;;35.87;;
9821;SDS011;4950;46.042;14.472;2022-10-16T04:32:39;39.93;;;36.23;;
9821;SDS011;4950;46.042;14.472;2022-10-16T04:35:06;42.00;;;38.00;;
9821;SDS011;4950;46.042;14.472;2022-10-16T04:37:33;39.07;;;35.47;;
9821;SDS011;4950;46.042;14.472;2022-10-16T04:40:00;41.23;;;37.03;;
9821;SDS011;4950;46.042;14.472;2022-10-16T04:42:26;42.63;;;38.27;;
9821;SDS011;4950;46.042;14.472;2022-10-16T04:44:53;43.47;;;39.37;;
9821;SDS011;4950;46.042;14.472;2022-10-16T04:47:21;43.87;;;39.27;;
9821;SDS011;4950;46.042;14.472;2022-10-16T04:49:47;41.70;;;37.50;;
9821;SDS011;4950;46.042;14.472;2022-10-16T04:52:14;42.53;;;38.43;;
9821;SDS011;4950;46.042;14.472;2022-10-16T04:54:41;44.67;;;40.17;;
9821;SDS011;4950;46.042;14.472;2022-10-16T04:57:10;41.73;;;37.53;;
9821;SDS011;4950;46.042;14.472;2022-10-16T04:59:37;45.27;;;40.83;;
9821;SDS011;4950;46.042;14.472;2022-10-16T05:02:03;43.70;;;39.37;;
9821;SDS011;4950;46.042;14.472;2022-10-16T05:04:32;45.57;;;40.97;;
9821;SDS011;4950;46.042;14.472;2022-10-16T05:06:59;43.33;;;39.03;;
9821;SDS011;4950;46.042;14.472;2022-10-16T05:09:25;44.93;;;40.50;;
9821;SDS011;4950;46.042;14.472;2022-10-16T05:11:52;44.60;;;40.03;;
9821;SDS011;4950;46.042;14.472;2022-10-16T05:14:18;43.63;;;39.40;;
9821;SDS011;4950;46.042;14.472;2022-10-16T05:16:45;44.00;;;39.40;;
9821;SDS011;4950;46.042;14.472;2022-10-16T05:19:13;42.77;;;38.63;;
9821;SDS011;4950;46.042;14.472;2022-10-16T05:21:41;43.83;;;39.33;;
9821;SDS011;4950;46.042;14.472;2022-10-16T05:24:07;42.47;;;38.37;;
9821;SDS011;4950;46.042;14.472;2022-10-16T05:26:34;45.13;;;40.43;;
9821;SDS011;4950;46.042;14.472;2022-10-16T05:29:01;43.17;;;38.93;;
9821;SDS011;4950;46.042;14.472;2022-10-16T05:31:28;43.90;;;39.27;;
9821;SDS011;4950;46.042;14.472;2022-10-16T05:33:57;44.03;;;39.43;;
9821;SDS011;4950;46.042;14.472;2022-10-16T05:36:25;43.03;;;38.53;;
9821;SDS011;4950;46.042;14.472;2022-10-16T05:38:53;43.00;;;38.30;;
9821;SDS011;4950;46.042;14.472;2022-10-16T05:41:20;43.87;;;39.43;;
9821;SDS011;4950;46.042;14.472;2022-10-16T05:43:48;46.03;;;41.43;;
9821;SDS011;4950;46.042;14.472;2022-10-16T05:46:15;43.80;;;39.27;;
9821;SDS011;4950;46.042;14.472;2022-10-16T05:48:42;45.57;;;40.70;;
9821;SDS011;4950;46.042;14.472;2022-10-16T05:51:09;44.83;;;40.13;;
9821;SDS011;4950;46.042;14.472;2022-10-16T05:53:38;43.70;;;38.80;;
9821;SDS011;4950;46.042;14.472;2022-10-16T05:56:08;39.43;;;35.43;;
9821;SDS011;4950;46.042;14.472;2022-10-16T05:58:36;42.07;;;37.57;;
9821;SDS011;4950;46.042;14.472;2022-10-16T06:01:06;38.97;;;35.07;;
9821;SDS011;4950;46.042;14.472;2022-10-16T06:03:35;42.03;;;37.70;;
9821;SDS011;4950;46.042;14.472;2022-10-16T06:06:06;42.57;;;38.23;;
9821;SDS011;4950;46.042;14.472;2022-10-16T06:08:34;43.17;;;38.53;;
9821;SDS011;4950;46.042;14.472;2022-10-16T06:11:00;43.80;;;39.20;;
9821;SDS011;4950;46.042;14.472;2022-10-16T06:13:29;40.47;;;36.17;;
9821;SDS011;4950;46.042;14.472;2022-10-16T06:15:56;42.83;;;38.23;;
9821;SDS011;4950;46.042;14.472;2022-10-16T06:18:23;42.23;;;37.90;;
9821;SDS011;4950;46.042;14.472;2022-10-16T06:20:50;43.10;;;38.47;;
9821;SDS011;4950;46.042;14.472;2022-10-16T06:23:17;41.90;;;37.70;;
9821;SDS011;4950;46.042;14.472;2022-10-16T06:25:43;43.50;;;35.97;;
9821;SDS011;4950;46.042;14.472;2022-10-16T06:28:10;40.10;;;36.23;;
9821;SDS011;4950;46.042;14.472;2022-10-16T06:30:38;40.10;;;35.90;;
9821;SDS011;4950;46.042;14.472;2022-10-16T06:33:05;46.27;;;35.93;;
9821;SDS011;4950;46.042;14.472;2022-10-16T06:35:31;41.53;;;37.10;;
9821;SDS011;4950;46.042;14.472;2022-10-16T06:37:58;43.10;;;38.83;;
9821;SDS011;4950;46.042;14.472;2022-10-16T06:40:24;42.37;;;38.37;;
9821;SDS011;4950;46.042;14.472;2022-10-16T06:42:54;40.47;;;36.73;;
9821;SDS011;4950;46.042;14.472;2022-10-16T06:45:20;41.73;;;37.63;;
9821;SDS011;4950;46.042;14.472;2022-10-16T06:47:48;40.53;;;36.63;;
9821;SDS011;4950;46.042;14.472;2022-10-16T06:50:15;40.20;;;36.33;;
9821;SDS011;4950;46.042;14.472;2022-10-16T06:52:42;41.90;;;37.80;;
9821;SDS011;4950;46.042;14.472;2022-10-16T06:55:08;51.40;;;35.53;;
9821;SDS011;4950;46.042;14.472;2022-10-16T06:57:35;46.53;;;35.07;;
9821;SDS011;4950;46.042;14.472;2022-10-16T07:00:02;41.93;;;35.20;;
9821;SDS011;4950;46.042;14.472;2022-10-16T07:02:30;53.70;;;35.97;;
9821;SDS011;4950;46.042;14.472;2022-10-16T07:04:58;53.33;;;37.73;;
9821;SDS011;4950;46.042;14.472;2022-10-16T07:07:24;42.30;;;38.23;;
9821;SDS011;4950;46.042;14.472;2022-10-16T07:09:51;41.43;;;37.30;;
9821;SDS011;4950;46.042;14.472;2022-10-16T07:12:18;40.10;;;35.53;;
9821;SDS011;4950;46.042;14.472;2022-10-16T07:14:44;51.60;;;37.27;;
9821;SDS011;4950;46.042;14.472;2022-10-16T07:17:11;46.47;;;36.33;;
9821;SDS011;4950;46.042;14.472;2022-10-16T07:19:38;59.47;;;37.30;;
9821;SDS011;4950;46.042;14.472;2022-10-16T07:22:06;40.30;;;36.50;;
9821;SDS011;4950;46.042;14.472;2022-10-16T07:24:32;41.97;;;37.93;;
9821;SDS011;4950;46.042;14.472;2022-10-16T07:26:59;41.57;;;37.50;;
9821;SDS011;4950;46.042;14.472;2022-10-16T07:29:26;41.97;;;37.97;;
9821;SDS011;4950;46.042;14.472;2022-10-16T07:31:52;41.13;;;36.97;;
9821;SDS011;4950;46.042;14.472;2022-10-16T07:34:19;41.37;;;37.37;;
9821;SDS011;4950;46.042;14.472;2022-10-16T07:36:47;38.87;;;35.20;;
9821;SDS011;4950;46.042;14.472;2022-10-16T07:39:16;53.33;;;35.97;;
9821;SDS011;4950;46.042;14.472;2022-10-16T07:41:43;40.80;;;36.30;;
9821;SDS011;4950;46.042;14.472;2022-10-16T07:44:10;38.20;;;34.03;;
9821;SDS011;4950;46.042;14.472;2022-10-16T07:46:36;38.03;;;34.53;;
9821;SDS011;4950;46.042;14.472;2022-10-16T07:49:03;61.03;;;36.13;;
9821;SDS011;4950;46.042;14.472;2022-10-16T07:51:30;37.97;;;34.17;;
9821;SDS011;4950;46.042;14.472;2022-10-16T07:53:57;38.47;;;34.60;;
9821;SDS011;4950;46.042;14.472;2022-10-16T07:56:25;38.60;;;34.80;;
9821;SDS011;4950;46.042;14.472;2022-10-16T07:58:52;38.47;;;34.77;;
9821;SDS011;4950;46.042;14.472;2022-10-16T08:01:19;37.83;;;34.10;;
9821;SDS011;4950;46.042;14.472;2022-10-16T08:03:47;40.77;;;36.60;;
9821;SDS011;4950;46.042;14.472;2022-10-16T08:06:15;37.27;;;33.57;;
9821;SDS011;4950;46.042;14.472;2022-10-16T08:08:42;36.87;;;33.37;;
9821;SDS011;4950;46.042;14.472;2022-10-16T08:11:09;37.67;;;34.00;;
9821;SDS011;4950;46.042;14.472;2022-10-16T08:13:37;36.07;;;32.63;;
9821;SDS011;4950;46.042;14.472;2022-10-16T08:16:04;37.20;;;33.67;;
9821;SDS011;4950;46.042;14.472;2022-10-16T08:18:32;37.60;;;33.90;;
9821;SDS011;4950;46.042;14.472;2022-10-16T08:21:00;37.00;;;33.30;;
9821;SDS011;4950;46.042;14.472;2022-10-16T08:23:26;37.67;;;34.00;;
9821;SDS011;4950;46.042;14.472;2022-10-16T08:25:53;36.53;;;33.17;;
9821;SDS011;4950;46.042;14.472;2022-10-16T08:28:21;37.10;;;33.63;;
9821;SDS011;4950;46.042;14.472;2022-10-16T08:30:50;39.17;;;35.37;;
9821;SDS011;4950;46.042;14.472;2022-10-16T08:33:16;38.43;;;34.63;;
9821;SDS011;4950;46.042;14.472;2022-10-16T08:35:49;38.40;;;34.63;;
9821;SDS011;4950;46.042;14.472;2022-10-16T08:38:17;39.77;;;35.77;;
9821;SDS011;4950;46.042;14.472;2022-10-16T08:40:44;39.97;;;35.97;;
9821;SDS011;4950;46.042;14.472;2022-10-16T08:43:16;41.37;;;37.03;;
9821;SDS011;4950;46.042;14.472;2022-10-16T08:46:02;38.33;;;34.43;;
9821;SDS011;4950;46.042;14.472;2022-10-16T08:48:40;40.97;;;36.60;;
9821;SDS011;4950;46.042;14.472;2022-10-16T08:51:11;38.10;;;34.10;;
9821;SDS011;4950;46.042;14.472;2022-10-16T08:53:46;42.17;;;37.87;;
9821;SDS011;4950;46.042;14.472;2022-10-16T08:56:18;41.17;;;36.77;;
9821;SDS011;4950;46.042;14.472;2022-10-16T08:58:45;41.23;;;36.47;;
9821;SDS011;4950;46.042;14.472;2022-10-16T09:01:14;41.03;;;36.83;;
9821;SDS011;4950;46.042;14.472;2022-10-16T09:03:47;41.70;;;37.37;;
9821;SDS011;4950;46.042;14.472;2022-10-16T09:06:27;42.70;;;38.23;;
9821;SDS011;4950;46.042;14.472;2022-10-16T09:09:15;43.47;;;38.87;;
9821;SDS011;4950;46.042;14.472;2022-10-16T09:11:55;42.37;;;37.90;;
9821;SDS011;4950;46.042;14.472;2022-10-16T09:14:33;42.63;;;38.20;;
9821;SDS011;4950;46.042;14.472;2022-10-16T09:17:11;42.03;;;37.60;;
9821;SDS011;4950;46.042;14.472;2022-10-16T09:19:51;43.27;;;38.67;;
9821;SDS011;4950;46.042;14.472;2022-10-16T09:22:24;45.03;;;40.23;;
9821;SDS011;4950;46.042;14.472;2022-10-16T09:24:53;43.00;;;38.43;;
9821;SDS011;4950;46.042;14.472;2022-10-16T09:27:20;43.23;;;38.63;;
9821;SDS011;4950;46.042;14.472;2022-10-16T09:29:48;39.80;;;35.70;;
9821;SDS011;4950;46.042;14.472;2022-10-16T09:32:17;41.93;;;37.43;;
9821;SDS011;4950;46.042;14.472;2022-10-16T09:34:47;42.57;;;38.27;;
9821;SDS011;4950;46.042;14.472;2022-10-16T09:37:17;40.60;;;36.43;;
9821;SDS011;4950;46.042;14.472;2022-10-16T09:39:45;42.27;;;37.77;;
9821;SDS011;4950;46.042;14.472;2022-10-16T09:42:14;41.63;;;37.30;;
9821;SDS011;4950;46.042;14.472;2022-10-16T09:44:46;40.87;;;36.10;;
9821;SDS011;4950;46.042;14.472;2022-10-16T09:47:16;40.90;;;36.47;;
9821;SDS011;4950;46.042;14.472;2022-10-16T09:49:52;41.37;;;37.00;;
9821;SDS011;4950;46.042;14.472;2022-10-16T09:52:20;39.17;;;35.03;;
9821;SDS011;4950;46.042;14.472;2022-10-16T09:54:50;39.77;;;35.43;;
9821;SDS011;4950;46.042;14.472;2022-10-16T09:57:17;40.17;;;36.07;;
9821;SDS011;4950;46.042;14.472;2022-10-16T09:59:48;39.30;;;35.43;;
9821;SDS011;4950;46.042;14.472;2022-10-16T10:02:18;38.03;;;34.30;;
9821;SDS011;4950;46.042;14.472;2022-10-16T10:04:53;38.17;;;34.37;;
9821;SDS011;4950;46.042;14.472;2022-10-16T10:07:23;37.43;;;33.73;;
9821;SDS011;4950;46.042;14.472;2022-10-16T10:09:51;39.47;;;35.53;;
9821;SDS011;4950;46.042;14.472;2022-10-16T10:12:20;37.43;;;33.40;;
9821;SDS011;4950;46.042;14.472;2022-10-16T10:14:49;38.00;;;34.13;;
9821;SDS011;4950;46.042;14.472;2022-10-16T10:17:20;40.00;;;36.00;;
9821;SDS011;4950;46.042;14.472;2022-10-16T10:19:49;38.13;;;34.53;;
9821;SDS011;4950;46.042;14.472;2022-10-16T10:22:24;39.53;;;35.53;;
9821;SDS011;4950;46.042;14.472;2022-10-16T10:24:56;40.85;;;36.80;;
9821;SDS011;4950;46.042;14.472;2022-10-16T10:27:28;37.03;;;33.22;;
9821;SDS011;4950;46.042;14.472;2022-10-16T10:30:02;37.42;;;33.83;;
9821;SDS011;4950;46.042;14.472;2022-10-16T10:32:40;34.42;;;30.95;;
9821;SDS011;4950;46.042;14.472;2022-10-16T10:35:14;34.47;;;31.23;;
9821;SDS011;4950;46.042;14.472;2022-10-16T10:40:38;33.53;;;30.17;;
9821;SDS011;4950;46.042;14.472;2022-10-16T10:43:13;33.50;;;30.30;;
9821;SDS011;4950;46.042;14.472;2022-10-16T10:45:50;33.05;;;29.77;;
9821;SDS011;4950;46.042;14.472;2022-10-16T10:48:28;34.85;;;31.35;;
9821;SDS011;4950;46.042;14.472;2022-10-16T10:51:16;31.33;;;28.20;;
9821;SDS011;4950;46.042;14.472;2022-10-16T10:53:48;32.50;;;29.27;;
9821;SDS011;4950;46.042;14.472;2022-10-16T10:56:24;31.20;;;28.08;;
9821;SDS011;4950;46.042;14.472;2022-10-16T10:59:16;31.27;;;28.17;;
9821;SDS011;4950;46.042;14.472;2022-10-16T11:01:55;31.02;;;28.02;;
9821;SDS011;4950;46.042;14.472;2022-10-16T11:07:36;35.22;;;31.63;;
9821;SDS011;4950;46.042;14.472;2022-10-16T11:10:12;32.72;;;29.58;;
9821;SDS011;4950;46.042;14.472;2022-10-16T11:12:43;30.60;;;27.80;;
9821;SDS011;4950;46.042;14.472;2022-10-16T11:15:14;30.25;;;27.25;;
9821;SDS011;4950;46.042;14.472;2022-10-16T11:17:45;31.25;;;28.17;;
9821;SDS011;4950;46.042;14.472;2022-10-16T11:20:18;30.67;;;27.75;;
9821;SDS011;4950;46.042;14.472;2022-10-16T11:22:50;29.83;;;26.83;;
9821;SDS011;4950;46.042;14.472;2022-10-16T11:25:20;29.60;;;26.83;;
9821;SDS011;4950;46.042;14.472;2022-10-16T11:27:50;29.33;;;26.65;;
9821;SDS011;4950;46.042;14.472;2022-10-16T11:30:24;31.27;;;28.23;;
9821;SDS011;4950;46.042;14.472;2022-10-16T11:32:56;28.90;;;25.98;;
9821;SDS011;4950;46.042;14.472;2022-10-16T11:35:34;29.48;;;26.63;;
9821;SDS011;4950;46.042;14.472;2022-10-16T11:40:40;29.38;;;26.48;;
9821;SDS011;4950;46.042;14.472;2022-10-16T11:43:10;28.98;;;26.27;;
9821;SDS011;4950;46.042;14.472;2022-10-16T11:45:41;28.42;;;25.73;;
9821;SDS011;4950;46.042;14.472;2022-10-16T11:48:15;29.00;;;26.10;;
9821;SDS011;4950;46.042;14.472;2022-10-16T11:50:48;27.83;;;25.13;;
9821;SDS011;4950;46.042;14.472;2022-10-16T11:53:21;28.85;;;26.17;;
9821;SDS011;4950;46.042;14.472;2022-10-16T11:55:53;28.13;;;25.42;;
9821;SDS011;4950;46.042;14.472;2022-10-16T11:58:22;28.80;;;26.08;;
9821;SDS011;4950;46.042;14.472;2022-10-16T12:00:56;27.98;;;25.38;;
9821;SDS011;4950;46.042;14.472;2022-10-16T12:03:28;30.83;;;27.70;;
9821;SDS011;4950;46.042;14.472;2022-10-16T12:06:06;28.88;;;26.02;;
9821;SDS011;4950;46.042;14.472;2022-10-16T12:08:43;28.55;;;25.85;;
9821;SDS011;4950;46.042;14.472;2022-10-16T12:11:32;28.95;;;26.10;;
9821;SDS011;4950;46.042;14.472;2022-10-16T12:14:18;30.52;;;27.63;;
9821;SDS011;4950;46.042;14.472;2022-10-16T12:16:51;29.20;;;26.50;;
9821;SDS011;4950;46.042;14.472;2022-10-16T12:19:19;30.92;;;27.65;;
9821;SDS011;4950;46.042;14.472;2022-10-16T12:21:48;27.73;;;25.13;;
9821;SDS011;4950;46.042;14.472;2022-10-16T12:24:29;31.90;;;28.70;;
9821;SDS011;4950;46.042;14.472;2022-10-16T12:26:59;31.02;;;28.02;;
9821;SDS011;4950;46.042;14.472;2022-10-16T12:29:29;30.10;;;27.23;;
9821;SDS011;4950;46.042;14.472;2022-10-16T12:32:00;29.38;;;26.67;;
9821;SDS011;4950;46.042;14.472;2022-10-16T12:34:29;29.73;;;26.63;;
9821;SDS011;4950;46.042;14.472;2022-10-16T12:37:10;29.98;;;27.02;;
9821;SDS011;4950;46.042;14.472;2022-10-16T12:39:40;30.27;;;27.30;;
9821;SDS011;4950;46.042;14.472;2022-10-16T12:42:19;28.80;;;26.05;;
9821;SDS011;4950;46.042;14.472;2022-10-16T12:44:49;29.08;;;26.17;;
9821;SDS011;4950;46.042;14.472;2022-10-16T12:47:19;28.63;;;26.02;;
9821;SDS011;4950;46.042;14.472;2022-10-16T12:49:48;29.00;;;26.13;;
9821;SDS011;4950;46.042;14.472;2022-10-16T12:52:24;30.67;;;27.73;;
9821;SDS011;4950;46.042;14.472;2022-10-16T12:54:55;31.38;;;28.33;;
9821;SDS011;4950;46.042;14.472;2022-10-16T12:57:30;29.35;;;26.45;;
9821;SDS011;4950;46.042;14.472;2022-10-16T13:00:10;29.98;;;27.00;;
9821;SDS011;4950;46.042;14.472;2022-10-16T13:02:54;30.90;;;27.95;;
9821;SDS011;4950;46.042;14.472;2022-10-16T13:05:44;30.75;;;27.75;;
9821;SDS011;4950;46.042;14.472;2022-10-16T13:08:28;30.98;;;28.02;;
9821;SDS011;4950;46.042;14.472;2022-10-16T13:11:05;28.80;;;25.95;;
9821;SDS011;4950;46.042;14.472;2022-10-16T13:13:44;19.83;;;17.52;;
9821;SDS011;4950;46.042;14.472;2022-10-16T13:16:34;25.48;;;22.95;;
9821;SDS011;4950;46.042;14.472;2022-10-16T13:19:14;29.33;;;26.38;;
9821;SDS011;4950;46.042;14.472;2022-10-16T13:21:51;28.48;;;25.88;;
9821;SDS011;4950;46.042;14.472;2022-10-16T13:24:34;30.52;;;27.40;;
9821;SDS011;4950;46.042;14.472;2022-10-16T13:27:14;31.20;;;28.17;;
9821;SDS011;4950;46.042;14.472;2022-10-16T13:29:52;28.48;;;25.77;;
9821;SDS011;4950;46.042;14.472;2022-10-16T13:32:21;28.25;;;24.98;;
9821;SDS011;4950;46.042;14.472;2022-10-16T13:34:48;29.98;;;26.95;;
9821;SDS011;4950;46.042;14.472;2022-10-16T13:37:16;29.55;;;26.63;;
9821;SDS011;4950;46.042;14.472;2022-10-16T13:39:46;29.95;;;26.88;;
9821;SDS011;4950;46.042;14.472;2022-10-16T13:42:13;29.27;;;26.58;;
9821;SDS011;4950;46.042;14.472;2022-10-16T13:44:44;27.60;;;25.00;;
9821;SDS011;4950;46.042;14.472;2022-10-16T13:47:16;26.90;;;24.05;;
9821;SDS011;4950;46.042;14.472;2022-10-16T13:49:45;28.05;;;25.30;;
9821;SDS011;4950;46.042;14.472;2022-10-16T13:52:16;26.92;;;24.35;;
9821;SDS011;4950;46.042;14.472;2022-10-16T13:54:46;25.80;;;23.30;;
9821;SDS011;4950;46.042;14.472;2022-10-16T13:57:13;29.65;;;26.85;;
9821;SDS011;4950;46.042;14.472;2022-10-16T13:59:40;30.50;;;27.30;;
9821;SDS011;4950;46.042;14.472;2022-10-16T14:02:10;28.42;;;25.63;;
9821;SDS011;4950;46.042;14.472;2022-10-16T14:04:44;30.90;;;27.75;;
9821;SDS011;4950;46.042;14.472;2022-10-16T14:07:13;29.15;;;26.45;;
9821;SDS011;4950;46.042;14.472;2022-10-16T14:09:47;27.02;;;24.52;;
9821;SDS011;4950;46.042;14.472;2022-10-16T14:12:15;27.30;;;24.38;;
9821;SDS011;4950;46.042;14.472;2022-10-16T14:14:43;26.95;;;24.08;;
9821;SDS011;4950;46.042;14.472;2022-10-16T14:17:14;25.88;;;23.42;;
9821;SDS011;4950;46.042;14.472;2022-10-16T14:19:45;24.15;;;21.63;;
9821;SDS011;4950;46.042;14.472;2022-10-16T14:22:21;24.98;;;22.50;;
9821;SDS011;4950;46.042;14.472;2022-10-16T14:24:54;25.13;;;22.63;;
9821;SDS011;4950;46.042;14.472;2022-10-16T14:27:23;24.05;;;21.63;;
9821;SDS011;4950;46.042;14.472;2022-10-16T14:30:03;24.55;;;22.05;;
9821;SDS011;4950;46.042;14.472;2022-10-16T14:32:39;24.75;;;22.30;;
9821;SDS011;4950;46.042;14.472;2022-10-16T14:35:11;23.92;;;21.42;;
9821;SDS011;4950;46.042;14.472;2022-10-16T14:37:51;26.33;;;23.63;;
9821;SDS011;4950;46.042;14.472;2022-10-16T14:40:19;24.83;;;22.40;;
9821;SDS011;4950;46.042;14.472;2022-10-16T14:42:48;25.88;;;23.17;;
9821;SDS011;4950;46.042;14.472;2022-10-16T14:45:18;24.20;;;21.65;;
9821;SDS011;4950;46.042;14.472;2022-10-16T14:47:47;24.90;;;22.15;;
9821;SDS011;4950;46.042;14.472;2022-10-16T14:50:17;27.60;;;24.83;;
9821;SDS011;4950;46.042;14.472;2022-10-16T14:52:43;35.10;;;30.35;;
9821;SDS011;4950;46.042;14.472;2022-10-16T14:55:10;31.15;;;27.85;;
9821;SDS011;4950;46.042;14.472;2022-10-16T14:57:38;32.78;;;29.30;;
9821;SDS011;4950;46.042;14.472;2022-10-16T15:00:08;28.65;;;25.85;;